MET'MAP v2.0
soon released !

Expected late october,
this new version will be
more efficient, smarter,
and hosted on a brand new
server x3 powerfull...
...and still free !


Not compatible ?
Try the mobile version !

LOG IN : | Subscribe | Disclaimer | Who is Orbifly ? |
ICAO code :

TAF - LIPQ Friuli Venezia Giulia Apt. Trieste - 09 Dec 2019 04:12 UTC - Data Source NOAA   


- Airport Elevation : 39 ft
- IATA code : TRS
- No reported NOTAMs.


LIPQ - Friuli Venezia Giulia Apt. Trieste

Latest METAR recorded : 2015/08/11 07:50 LIPQ 110750Z VRB03KT 9999 SCT045 27/19 Q1012
TAF TAF LIPQ
Valid from the 09 at 00:00 until the 10 at 00:00 UTC


082300Z 0900/0924 VRB03KT 4000 BR BKN030
TEMPO 0909/0913 RA

Source NOAA


MET'MAP, your aeronautical weather chart ! - Copyright ORBIFLY December 2007

Programming & Development : Alexandra Zaïnal
Co-Developer : Marc-Olivier Méhu
Technical & hardware support : Manuel Goepfert
Concept & Financing : Baudouin d'Aumeries